sensor_id;sensor_type;location;lat;lon;timestamp;P1;durP1;ratioP1;P2;durP2;ratioP2
3257;SDS011;1641;51.306;12.384;2024-03-08T00:01:17;44.00;;;23.92;;
3257;SDS011;1641;51.306;12.384;2024-03-08T00:03:44;43.90;;;22.17;;
3257;SDS011;1641;51.306;12.384;2024-03-08T00:06:09;41.65;;;22.73;;
3257;SDS011;1641;51.306;12.384;2024-03-08T00:08:34;38.50;;;21.98;;
3257;SDS011;1641;51.306;12.384;2024-03-08T00:10:59;41.70;;;22.33;;
3257;SDS011;1641;51.306;12.384;2024-03-08T00:13:25;38.13;;;20.83;;
3257;SDS011;1641;51.306;12.384;2024-03-08T00:15:50;32.83;;;17.90;;
3257;SDS011;1641;51.306;12.384;2024-03-08T00:18:16;38.08;;;21.77;;
3257;SDS011;1641;51.306;12.384;2024-03-08T00:20:44;40.55;;;21.25;;
3257;SDS011;1641;51.306;12.384;2024-03-08T00:23:10;36.88;;;21.65;;
3257;SDS011;1641;51.306;12.384;2024-03-08T00:25:38;40.70;;;22.60;;
3257;SDS011;1641;51.306;12.384;2024-03-08T00:28:04;36.40;;;20.05;;
3257;SDS011;1641;51.306;12.384;2024-03-08T00:30:32;38.65;;;23.08;;
3257;SDS011;1641;51.306;12.384;2024-03-08T00:32:57;36.03;;;18.73;;
3257;SDS011;1641;51.306;12.384;2024-03-08T00:35:22;47.25;;;23.15;;
3257;SDS011;1641;51.306;12.384;2024-03-08T00:37:48;36.85;;;22.30;;
3257;SDS011;1641;51.306;12.384;2024-03-08T00:40:14;35.90;;;21.60;;
3257;SDS011;1641;51.306;12.384;2024-03-08T00:42:39;38.10;;;22.00;;
3257;SDS011;1641;51.306;12.384;2024-03-08T00:45:06;39.13;;;23.27;;
3257;SDS011;1641;51.306;12.384;2024-03-08T00:47:32;42.45;;;22.58;;
3257;SDS011;1641;51.306;12.384;2024-03-08T00:49:57;40.83;;;22.75;;
3257;SDS011;1641;51.306;12.384;2024-03-08T00:52:29;39.55;;;21.95;;
3257;SDS011;1641;51.306;12.384;2024-03-08T00:54:55;39.75;;;23.10;;
3257;SDS011;1641;51.306;12.384;2024-03-08T00:57:20;37.63;;;19.13;;
3257;SDS011;1641;51.306;12.384;2024-03-08T00:59:46;37.90;;;22.75;;
3257;SDS011;1641;51.306;12.384;2024-03-08T01:02:12;45.63;;;21.13;;
3257;SDS011;1641;51.306;12.384;2024-03-08T01:04:37;37.75;;;21.63;;
3257;SDS011;1641;51.306;12.384;2024-03-08T01:07:02;38.97;;;21.50;;
3257;SDS011;1641;51.306;12.384;2024-03-08T01:09:28;42.13;;;23.55;;
3257;SDS011;1641;51.306;12.384;2024-03-08T01:11:53;30.80;;;18.08;;
3257;SDS011;1641;51.306;12.384;2024-03-08T01:14:34;40.97;;;23.10;;
3257;SDS011;1641;51.306;12.384;2024-03-08T01:17:00;41.97;;;23.63;;
3257;SDS011;1641;51.306;12.384;2024-03-08T01:19:25;36.17;;;19.58;;
3257;SDS011;1641;51.306;12.384;2024-03-08T01:21:50;40.13;;;21.52;;
3257;SDS011;1641;51.306;12.384;2024-03-08T01:24:16;41.72;;;21.80;;
3257;SDS011;1641;51.306;12.384;2024-03-08T01:26:41;40.70;;;22.77;;
3257;SDS011;1641;51.306;12.384;2024-03-08T01:29:12;40.78;;;23.90;;
3257;SDS011;1641;51.306;12.384;2024-03-08T01:31:38;36.42;;;21.83;;
3257;SDS011;1641;51.306;12.384;2024-03-08T01:34:03;41.25;;;23.13;;
3257;SDS011;1641;51.306;12.384;2024-03-08T01:36:29;41.35;;;22.48;;
3257;SDS011;1641;51.306;12.384;2024-03-08T01:38:54;43.45;;;23.45;;
3257;SDS011;1641;51.306;12.384;2024-03-08T01:41:20;40.15;;;21.80;;
3257;SDS011;1641;51.306;12.384;2024-03-08T01:43:45;40.53;;;23.38;;
3257;SDS011;1641;51.306;12.384;2024-03-08T01:46:11;41.33;;;22.60;;
3257;SDS011;1641;51.306;12.384;2024-03-08T01:48:41;38.28;;;23.38;;
3257;SDS011;1641;51.306;12.384;2024-03-08T01:51:07;41.63;;;22.85;;
3257;SDS011;1641;51.306;12.384;2024-03-08T01:53:32;38.28;;;21.40;;
3257;SDS011;1641;51.306;12.384;2024-03-08T01:55:59;36.75;;;21.90;;
3257;SDS011;1641;51.306;12.384;2024-03-08T01:58:29;42.03;;;23.75;;
3257;SDS011;1641;51.306;12.384;2024-03-08T02:00:56;45.03;;;24.05;;
3257;SDS011;1641;51.306;12.384;2024-03-08T02:03:22;46.67;;;23.75;;
3257;SDS011;1641;51.306;12.384;2024-03-08T02:05:47;39.95;;;23.10;;
3257;SDS011;1641;51.306;12.384;2024-03-08T02:08:13;44.80;;;24.27;;
3257;SDS011;1641;51.306;12.384;2024-03-08T02:10:40;39.47;;;22.70;;
3257;SDS011;1641;51.306;12.384;2024-03-08T02:13:06;38.85;;;23.08;;
3257;SDS011;1641;51.306;12.384;2024-03-08T02:18:32;43.92;;;23.80;;
3257;SDS011;1641;51.306;12.384;2024-03-08T02:20:59;39.13;;;22.25;;
3257;SDS011;1641;51.306;12.384;2024-03-08T02:23:26;43.90;;;22.48;;
3257;SDS011;1641;51.306;12.384;2024-03-08T02:25:52;45.33;;;21.75;;
3257;SDS011;1641;51.306;12.384;2024-03-08T02:28:18;37.42;;;21.73;;
3257;SDS011;1641;51.306;12.384;2024-03-08T02:30:47;43.50;;;21.40;;
3257;SDS011;1641;51.306;12.384;2024-03-08T02:33:14;41.47;;;23.95;;
3257;SDS011;1641;51.306;12.384;2024-03-08T02:35:43;42.20;;;22.52;;
3257;SDS011;1641;51.306;12.384;2024-03-08T02:38:15;46.75;;;23.67;;
3257;SDS011;1641;51.306;12.384;2024-03-08T02:40:42;39.03;;;22.88;;
3257;SDS011;1641;51.306;12.384;2024-03-08T02:43:08;49.28;;;23.95;;
3257;SDS011;1641;51.306;12.384;2024-03-08T02:45:34;39.78;;;23.48;;
3257;SDS011;1641;51.306;12.384;2024-03-08T02:47:59;44.05;;;22.35;;
3257;SDS011;1641;51.306;12.384;2024-03-08T02:50:28;39.80;;;19.88;;
3257;SDS011;1641;51.306;12.384;2024-03-08T02:52:53;49.00;;;23.95;;
3257;SDS011;1641;51.306;12.384;2024-03-08T02:55:18;36.92;;;19.13;;
3257;SDS011;1641;51.306;12.384;2024-03-08T02:57:44;43.58;;;21.75;;
3257;SDS011;1641;51.306;12.384;2024-03-08T03:00:12;41.45;;;22.63;;
3257;SDS011;1641;51.306;12.384;2024-03-08T03:02:38;41.28;;;20.90;;
3257;SDS011;1641;51.306;12.384;2024-03-08T03:05:03;37.85;;;22.67;;
3257;SDS011;1641;51.306;12.384;2024-03-08T03:07:31;44.15;;;20.48;;
3257;SDS011;1641;51.306;12.384;2024-03-08T03:09:59;40.90;;;20.65;;
3257;SDS011;1641;51.306;12.384;2024-03-08T03:12:27;37.25;;;19.90;;
3257;SDS011;1641;51.306;12.384;2024-03-08T03:14:53;41.00;;;23.15;;
3257;SDS011;1641;51.306;12.384;2024-03-08T03:17:24;39.50;;;19.92;;
3257;SDS011;1641;51.306;12.384;2024-03-08T03:19:50;44.72;;;23.13;;
3257;SDS011;1641;51.306;12.384;2024-03-08T03:22:21;41.50;;;22.42;;
3257;SDS011;1641;51.306;12.384;2024-03-08T03:24:47;44.97;;;22.40;;
3257;SDS011;1641;51.306;12.384;2024-03-08T03:27:13;45.65;;;19.98;;
3257;SDS011;1641;51.306;12.384;2024-03-08T03:29:40;33.38;;;18.85;;
3257;SDS011;1641;51.306;12.384;2024-03-08T03:32:10;38.05;;;20.23;;
3257;SDS011;1641;51.306;12.384;2024-03-08T03:34:36;46.05;;;21.30;;
3257;SDS011;1641;51.306;12.384;2024-03-08T03:37:02;42.85;;;21.30;;
3257;SDS011;1641;51.306;12.384;2024-03-08T03:39:29;35.20;;;17.83;;
3257;SDS011;1641;51.306;12.384;2024-03-08T03:42:02;44.92;;;23.70;;
3257;SDS011;1641;51.306;12.384;2024-03-08T03:44:29;40.05;;;20.15;;
3257;SDS011;1641;51.306;12.384;2024-03-08T03:46:57;44.08;;;22.27;;
3257;SDS011;1641;51.306;12.384;2024-03-08T03:49:23;42.30;;;22.17;;
3257;SDS011;1641;51.306;12.384;2024-03-08T03:51:48;47.67;;;22.55;;
3257;SDS011;1641;51.306;12.384;2024-03-08T03:54:14;41.95;;;21.60;;
3257;SDS011;1641;51.306;12.384;2024-03-08T03:56:39;41.85;;;21.45;;
3257;SDS011;1641;51.306;12.384;2024-03-08T03:59:10;40.90;;;23.58;;
3257;SDS011;1641;51.306;12.384;2024-03-08T04:01:41;42.25;;;22.13;;
3257;SDS011;1641;51.306;12.384;2024-03-08T04:04:11;40.30;;;22.23;;
3257;SDS011;1641;51.306;12.384;2024-03-08T04:06:37;43.42;;;22.73;;
3257;SDS011;1641;51.306;12.384;2024-03-08T04:09:07;34.72;;;19.23;;
3257;SDS011;1641;51.306;12.384;2024-03-08T04:11:34;40.75;;;22.35;;
3257;SDS011;1641;51.306;12.384;2024-03-08T04:14:01;37.60;;;20.25;;
3257;SDS011;1641;51.306;12.384;2024-03-08T04:16:26;46.08;;;23.65;;
3257;SDS011;1641;51.306;12.384;2024-03-08T04:18:51;37.80;;;22.38;;
3257;SDS011;1641;51.306;12.384;2024-03-08T04:21:18;44.13;;;23.73;;
3257;SDS011;1641;51.306;12.384;2024-03-08T04:23:44;38.40;;;22.42;;
3257;SDS011;1641;51.306;12.384;2024-03-08T04:26:11;42.70;;;21.92;;
3257;SDS011;1641;51.306;12.384;2024-03-08T04:28:36;39.65;;;19.92;;
3257;SDS011;1641;51.306;12.384;2024-03-08T04:31:03;41.38;;;22.60;;
3257;SDS011;1641;51.306;12.384;2024-03-08T04:33:29;46.92;;;22.45;;
3257;SDS011;1641;51.306;12.384;2024-03-08T04:35:54;43.63;;;22.40;;
3257;SDS011;1641;51.306;12.384;2024-03-08T04:38:23;43.00;;;22.73;;
3257;SDS011;1641;51.306;12.384;2024-03-08T04:40:54;44.40;;;22.40;;
3257;SDS011;1641;51.306;12.384;2024-03-08T04:43:19;41.65;;;21.73;;
3257;SDS011;1641;51.306;12.384;2024-03-08T04:45:46;44.35;;;23.35;;
3257;SDS011;1641;51.306;12.384;2024-03-08T04:48:11;40.67;;;21.92;;
3257;SDS011;1641;51.306;12.384;2024-03-08T04:50:38;43.15;;;22.73;;
3257;SDS011;1641;51.306;12.384;2024-03-08T04:53:03;44.33;;;22.55;;
3257;SDS011;1641;51.306;12.384;2024-03-08T04:55:30;41.17;;;22.45;;
3257;SDS011;1641;51.306;12.384;2024-03-08T04:57:55;38.42;;;21.65;;
3257;SDS011;1641;51.306;12.384;2024-03-08T05:00:21;43.90;;;20.70;;
3257;SDS011;1641;51.306;12.384;2024-03-08T05:02:50;40.97;;;22.05;;
3257;SDS011;1641;51.306;12.384;2024-03-08T05:05:21;43.40;;;23.85;;
3257;SDS011;1641;51.306;12.384;2024-03-08T05:07:50;45.13;;;22.27;;
3257;SDS011;1641;51.306;12.384;2024-03-08T05:10:17;43.85;;;23.05;;
3257;SDS011;1641;51.306;12.384;2024-03-08T05:12:46;42.22;;;21.58;;
3257;SDS011;1641;51.306;12.384;2024-03-08T05:15:16;40.20;;;22.38;;
3257;SDS011;1641;51.306;12.384;2024-03-08T05:17:41;43.88;;;23.73;;
3257;SDS011;1641;51.306;12.384;2024-03-08T05:20:07;49.22;;;23.00;;
3257;SDS011;1641;51.306;12.384;2024-03-08T05:22:42;44.65;;;23.83;;
3257;SDS011;1641;51.306;12.384;2024-03-08T05:25:09;47.92;;;23.55;;
3257;SDS011;1641;51.306;12.384;2024-03-08T05:27:36;43.60;;;23.65;;
3257;SDS011;1641;51.306;12.384;2024-03-08T05:30:04;32.58;;;17.50;;
3257;SDS011;1641;51.306;12.384;2024-03-08T05:32:33;45.65;;;24.50;;
3257;SDS011;1641;51.306;12.384;2024-03-08T05:34:58;48.40;;;24.63;;
3257;SDS011;1641;51.306;12.384;2024-03-08T05:37:26;48.55;;;23.48;;
3257;SDS011;1641;51.306;12.384;2024-03-08T05:39:52;49.63;;;24.67;;
3257;SDS011;1641;51.306;12.384;2024-03-08T05:42:17;48.15;;;22.90;;
3257;SDS011;1641;51.306;12.384;2024-03-08T05:44:42;43.88;;;23.75;;
3257;SDS011;1641;51.306;12.384;2024-03-08T05:47:08;45.63;;;24.45;;
3257;SDS011;1641;51.306;12.384;2024-03-08T05:49:33;53.85;;;26.02;;
3257;SDS011;1641;51.306;12.384;2024-03-08T05:51:59;50.50;;;24.95;;
3257;SDS011;1641;51.306;12.384;2024-03-08T05:54:25;40.85;;;21.45;;
3257;SDS011;1641;51.306;12.384;2024-03-08T05:56:50;46.58;;;24.25;;
3257;SDS011;1641;51.306;12.384;2024-03-08T05:59:17;48.13;;;23.30;;
3257;SDS011;1641;51.306;12.384;2024-03-08T06:01:43;46.17;;;23.67;;
3257;SDS011;1641;51.306;12.384;2024-03-08T06:04:09;54.65;;;25.45;;
3257;SDS011;1641;51.306;12.384;2024-03-08T06:06:35;48.65;;;24.38;;
3257;SDS011;1641;51.306;12.384;2024-03-08T06:09:02;45.55;;;24.60;;
3257;SDS011;1641;51.306;12.384;2024-03-08T06:11:37;42.85;;;22.27;;
3257;SDS011;1641;51.306;12.384;2024-03-08T06:14:03;42.40;;;21.40;;
3257;SDS011;1641;51.306;12.384;2024-03-08T06:16:28;44.25;;;22.25;;
3257;SDS011;1641;51.306;12.384;2024-03-08T06:18:55;50.40;;;23.95;;
3257;SDS011;1641;51.306;12.384;2024-03-08T06:21:23;46.05;;;22.88;;
3257;SDS011;1641;51.306;12.384;2024-03-08T06:23:51;26.77;;;13.40;;
3257;SDS011;1641;51.306;12.384;2024-03-08T06:26:16;36.25;;;18.35;;
3257;SDS011;1641;51.306;12.384;2024-03-08T06:28:41;48.45;;;20.08;;
3257;SDS011;1641;51.306;12.384;2024-03-08T06:31:07;21.48;;;12.93;;
3257;SDS011;1641;51.306;12.384;2024-03-08T06:33:33;43.90;;;21.92;;
3257;SDS011;1641;51.306;12.384;2024-03-08T06:36:01;47.75;;;24.20;;
3257;SDS011;1641;51.306;12.384;2024-03-08T06:38:27;53.40;;;27.13;;
3257;SDS011;1641;51.306;12.384;2024-03-08T06:40:52;48.10;;;26.23;;
3257;SDS011;1641;51.306;12.384;2024-03-08T06:43:19;48.58;;;22.90;;
3257;SDS011;1641;51.306;12.384;2024-03-08T06:45:45;38.17;;;16.70;;
3257;SDS011;1641;51.306;12.384;2024-03-08T06:48:22;32.75;;;16.85;;
3257;SDS011;1641;51.306;12.384;2024-03-08T06:50:47;48.08;;;23.33;;
3257;SDS011;1641;51.306;12.384;2024-03-08T06:53:15;22.75;;;11.93;;
3257;SDS011;1641;51.306;12.384;2024-03-08T06:55:44;38.53;;;19.23;;
3257;SDS011;1641;51.306;12.384;2024-03-08T06:58:12;33.55;;;16.70;;
3257;SDS011;1641;51.306;12.384;2024-03-08T07:00:39;36.78;;;17.45;;
3257;SDS011;1641;51.306;12.384;2024-03-08T07:03:07;43.22;;;22.50;;
3257;SDS011;1641;51.306;12.384;2024-03-08T07:05:37;36.25;;;20.23;;
3257;SDS011;1641;51.306;12.384;2024-03-08T07:08:02;42.45;;;21.60;;
3257;SDS011;1641;51.306;12.384;2024-03-08T07:10:28;24.17;;;15.35;;
3257;SDS011;1641;51.306;12.384;2024-03-08T07:12:54;29.42;;;16.38;;
3257;SDS011;1641;51.306;12.384;2024-03-08T07:15:21;31.35;;;17.75;;
3257;SDS011;1641;51.306;12.384;2024-03-08T07:17:48;34.33;;;16.70;;
3257;SDS011;1641;51.306;12.384;2024-03-08T07:20:14;42.08;;;16.77;;
3257;SDS011;1641;51.306;12.384;2024-03-08T07:22:43;34.65;;;18.83;;
3257;SDS011;1641;51.306;12.384;2024-03-08T07:25:09;41.40;;;21.83;;
3257;SDS011;1641;51.306;12.384;2024-03-08T07:27:52;19.15;;;11.02;;
3257;SDS011;1641;51.306;12.384;2024-03-08T07:30:20;36.65;;;22.27;;
3257;SDS011;1641;51.306;12.384;2024-03-08T07:33:08;36.65;;;21.00;;
3257;SDS011;1641;51.306;12.384;2024-03-08T07:38:08;36.58;;;19.58;;
3257;SDS011;1641;51.306;12.384;2024-03-08T07:43:05;31.95;;;19.10;;
3257;SDS011;1641;51.306;12.384;2024-03-08T07:45:34;33.22;;;18.83;;
3257;SDS011;1641;51.306;12.384;2024-03-08T07:48:01;28.35;;;13.15;;
3257;SDS011;1641;51.306;12.384;2024-03-08T07:50:27;29.52;;;18.25;;
3257;SDS011;1641;51.306;12.384;2024-03-08T07:52:53;33.53;;;17.27;;
3257;SDS011;1641;51.306;12.384;2024-03-08T07:55:19;23.88;;;12.95;;
3257;SDS011;1641;51.306;12.384;2024-03-08T07:57:46;34.30;;;20.00;;
3257;SDS011;1641;51.306;12.384;2024-03-08T08:00:13;32.88;;;19.10;;
3257;SDS011;1641;51.306;12.384;2024-03-08T08:02:42;22.30;;;13.88;;
3257;SDS011;1641;51.306;12.384;2024-03-08T08:05:10;31.50;;;19.70;;
3257;SDS011;1641;51.306;12.384;2024-03-08T08:07:35;38.10;;;21.10;;
3257;SDS011;1641;51.306;12.384;2024-03-08T08:10:01;32.75;;;16.45;;
3257;SDS011;1641;51.306;12.384;2024-03-08T08:12:26;35.35;;;20.40;;
3257;SDS011;1641;51.306;12.384;2024-03-08T08:14:53;31.67;;;19.35;;
3257;SDS011;1641;51.306;12.384;2024-03-08T08:17:18;29.13;;;19.67;;
3257;SDS011;1641;51.306;12.384;2024-03-08T08:19:49;31.13;;;18.02;;
3257;SDS011;1641;51.306;12.384;2024-03-08T08:22:16;30.75;;;19.00;;
3257;SDS011;1641;51.306;12.384;2024-03-08T08:24:43;28.77;;;18.67;;
3257;SDS011;1641;51.306;12.384;2024-03-08T08:27:08;33.35;;;19.65;;
3257;SDS011;1641;51.306;12.384;2024-03-08T08:29:43;30.30;;;18.70;;
3257;SDS011;1641;51.306;12.384;2024-03-08T08:32:08;33.55;;;17.92;;
3257;SDS011;1641;51.306;12.384;2024-03-08T08:34:35;31.73;;;19.33;;
3257;SDS011;1641;51.306;12.384;2024-03-08T08:37:01;31.73;;;19.70;;
3257;SDS011;1641;51.306;12.384;2024-03-08T08:39:26;32.10;;;19.33;;
3257;SDS011;1641;51.306;12.384;2024-03-08T08:41:52;32.28;;;19.95;;
3257;SDS011;1641;51.306;12.384;2024-03-08T08:44:18;31.85;;;19.35;;
3257;SDS011;1641;51.306;12.384;2024-03-08T08:46:43;31.58;;;19.20;;
3257;SDS011;1641;51.306;12.384;2024-03-08T08:49:11;28.85;;;17.92;;
3257;SDS011;1641;51.306;12.384;2024-03-08T08:51:39;34.07;;;19.67;;
3257;SDS011;1641;51.306;12.384;2024-03-08T08:54:04;37.83;;;21.45;;
3257;SDS011;1641;51.306;12.384;2024-03-08T08:56:31;28.63;;;16.40;;
3257;SDS011;1641;51.306;12.384;2024-03-08T08:58:56;34.90;;;19.80;;
3257;SDS011;1641;51.306;12.384;2024-03-08T09:01:22;33.97;;;19.40;;
3257;SDS011;1641;51.306;12.384;2024-03-08T09:03:48;28.98;;;18.63;;
3257;SDS011;1641;51.306;12.384;2024-03-08T09:06:15;36.63;;;20.88;;
3257;SDS011;1641;51.306;12.384;2024-03-08T09:08:41;32.22;;;18.88;;
3257;SDS011;1641;51.306;12.384;2024-03-08T09:11:06;48.38;;;27.85;;
3257;SDS011;1641;51.306;12.384;2024-03-08T09:13:32;31.83;;;17.75;;
3257;SDS011;1641;51.306;12.384;2024-03-08T09:16:02;43.28;;;15.60;;
3257;SDS011;1641;51.306;12.384;2024-03-08T09:18:28;31.85;;;17.65;;
3257;SDS011;1641;51.306;12.384;2024-03-08T09:21:00;52.13;;;24.73;;
3257;SDS011;1641;51.306;12.384;2024-03-08T09:23:25;28.10;;;15.93;;
3257;SDS011;1641;51.306;12.384;2024-03-08T09:25:55;31.70;;;19.23;;
3257;SDS011;1641;51.306;12.384;2024-03-08T09:28:20;32.67;;;19.15;;
3257;SDS011;1641;51.306;12.384;2024-03-08T09:30:46;29.38;;;17.55;;
3257;SDS011;1641;51.306;12.384;2024-03-08T09:33:11;34.35;;;19.95;;
3257;SDS011;1641;51.306;12.384;2024-03-08T09:35:36;33.75;;;19.23;;
3257;SDS011;1641;51.306;12.384;2024-03-08T09:38:01;34.60;;;17.40;;
3257;SDS011;1641;51.306;12.384;2024-03-08T09:40:28;28.88;;;18.05;;
3257;SDS011;1641;51.306;12.384;2024-03-08T09:42:54;29.30;;;15.95;;
3257;SDS011;1641;51.306;12.384;2024-03-08T09:45:20;35.05;;;20.05;;
3257;SDS011;1641;51.306;12.384;2024-03-08T09:47:49;31.90;;;20.25;;
3257;SDS011;1641;51.306;12.384;2024-03-08T09:50:16;33.83;;;20.88;;
3257;SDS011;1641;51.306;12.384;2024-03-08T09:52:42;31.27;;;19.50;;
3257;SDS011;1641;51.306;12.384;2024-03-08T09:55:11;32.95;;;21.05;;
3257;SDS011;1641;51.306;12.384;2024-03-08T09:57:37;24.77;;;14.00;;
3257;SDS011;1641;51.306;12.384;2024-03-08T10:00:03;34.15;;;19.08;;
3257;SDS011;1641;51.306;12.384;2024-03-08T10:02:44;43.75;;;24.45;;
3257;SDS011;1641;51.306;12.384;2024-03-08T10:05:10;32.72;;;17.83;;
3257;SDS011;1641;51.306;12.384;2024-03-08T10:07:37;38.63;;;22.48;;
3257;SDS011;1641;51.306;12.384;2024-03-08T10:10:02;37.15;;;20.88;;
3257;SDS011;1641;51.306;12.384;2024-03-08T10:12:28;23.45;;;11.82;;
3257;SDS011;1641;51.306;12.384;2024-03-08T10:14:55;39.53;;;21.05;;
3257;SDS011;1641;51.306;12.384;2024-03-08T10:17:21;31.55;;;18.10;;
3257;SDS011;1641;51.306;12.384;2024-03-08T10:19:50;29.15;;;18.33;;
3257;SDS011;1641;51.306;12.384;2024-03-08T10:22:16;26.42;;;16.67;;
3257;SDS011;1641;51.306;12.384;2024-03-08T10:24:42;32.10;;;19.42;;
3257;SDS011;1641;51.306;12.384;2024-03-08T10:27:10;29.67;;;17.80;;
3257;SDS011;1641;51.306;12.384;2024-03-08T10:29:36;30.58;;;15.38;;
3257;SDS011;1641;51.306;12.384;2024-03-08T10:32:02;33.33;;;18.35;;
3257;SDS011;1641;51.306;12.384;2024-03-08T10:34:30;34.63;;;19.13;;
3257;SDS011;1641;51.306;12.384;2024-03-08T10:37:04;30.55;;;17.38;;
3257;SDS011;1641;51.306;12.384;2024-03-08T10:39:36;32.10;;;18.50;;
3257;SDS011;1641;51.306;12.384;2024-03-08T10:42:09;31.60;;;17.55;;
3257;SDS011;1641;51.306;12.384;2024-03-08T10:44:51;21.95;;;13.60;;
3257;SDS011;1641;51.306;12.384;2024-03-08T10:47:28;29.50;;;15.80;;
3257;SDS011;1641;51.306;12.384;2024-03-08T10:52:47;31.75;;;18.83;;
3257;SDS011;1641;51.306;12.384;2024-03-08T10:55:19;32.03;;;17.00;;
3257;SDS011;1641;51.306;12.384;2024-03-08T10:57:51;26.00;;;14.80;;
3257;SDS011;1641;51.306;12.384;2024-03-08T11:00:16;30.35;;;19.00;;
3257;SDS011;1641;51.306;12.384;2024-03-08T11:02:43;37.35;;;13.25;;
3257;SDS011;1641;51.306;12.384;2024-03-08T11:05:10;31.60;;;18.58;;
3257;SDS011;1641;51.306;12.384;2024-03-08T11:07:55;28.45;;;15.52;;
3257;SDS011;1641;51.306;12.384;2024-03-08T11:10:21;24.17;;;13.57;;
3257;SDS011;1641;51.306;12.384;2024-03-08T11:12:46;30.92;;;18.05;;
3257;SDS011;1641;51.306;12.384;2024-03-08T11:15:13;28.63;;;16.77;;
3257;SDS011;1641;51.306;12.384;2024-03-08T11:20:13;25.87;;;13.37;;
3257;SDS011;1641;51.306;12.384;2024-03-08T11:22:40;22.02;;;13.88;;
3257;SDS011;1641;51.306;12.384;2024-03-08T11:28:11;27.08;;;14.82;;
3257;SDS011;1641;51.306;12.384;2024-03-08T11:30:42;35.38;;;18.83;;
3257;SDS011;1641;51.306;12.384;2024-03-08T11:33:13;33.42;;;18.33;;
3257;SDS011;1641;51.306;12.384;2024-03-08T11:35:39;27.42;;;17.38;;
3257;SDS011;1641;51.306;12.384;2024-03-08T11:38:07;25.13;;;13.57;;
3257;SDS011;1641;51.306;12.384;2024-03-08T11:40:36;25.67;;;15.35;;
3257;SDS011;1641;51.306;12.384;2024-03-08T11:43:01;29.73;;;16.10;;
3257;SDS011;1641;51.306;12.384;2024-03-08T11:45:32;29.08;;;16.40;;
3257;SDS011;1641;51.306;12.384;2024-03-08T11:48:01;31.40;;;16.58;;
3257;SDS011;1641;51.306;12.384;2024-03-08T11:50:27;21.42;;;12.95;;
3257;SDS011;1641;51.306;12.384;2024-03-08T11:52:52;22.30;;;12.85;;
3257;SDS011;1641;51.306;12.384;2024-03-08T11:55:17;25.63;;;15.73;;
3257;SDS011;1641;51.306;12.384;2024-03-08T11:57:44;27.17;;;11.73;;
3257;SDS011;1641;51.306;12.384;2024-03-08T12:00:16;36.17;;;19.00;;
3257;SDS011;1641;51.306;12.384;2024-03-08T12:05:34;33.88;;;20.15;;
3257;SDS011;1641;51.306;12.384;2024-03-08T12:08:01;37.13;;;18.02;;
3257;SDS011;1641;51.306;12.384;2024-03-08T12:10:27;30.90;;;18.60;;
3257;SDS011;1641;51.306;12.384;2024-03-08T12:12:53;17.80;;;10.85;;
3257;SDS011;1641;51.306;12.384;2024-03-08T12:15:21;27.80;;;15.45;;
3257;SDS011;1641;51.306;12.384;2024-03-08T12:17:48;26.83;;;13.00;;
3257;SDS011;1641;51.306;12.384;2024-03-08T12:20:16;31.90;;;18.88;;
3257;SDS011;1641;51.306;12.384;2024-03-08T12:22:43;33.80;;;19.83;;
3257;SDS011;1641;51.306;12.384;2024-03-08T12:25:10;28.55;;;16.88;;
3257;SDS011;1641;51.306;12.384;2024-03-08T12:27:37;26.40;;;14.00;;
3257;SDS011;1641;51.306;12.384;2024-03-08T12:30:22;23.00;;;13.20;;
3257;SDS011;1641;51.306;12.384;2024-03-08T12:32:52;19.55;;;9.98;;
3257;SDS011;1641;51.306;12.384;2024-03-08T12:35:21;27.08;;;16.23;;
3257;SDS011;1641;51.306;12.384;2024-03-08T12:37:51;25.75;;;16.33;;
3257;SDS011;1641;51.306;12.384;2024-03-08T12:40:18;25.90;;;14.80;;
3257;SDS011;1641;51.306;12.384;2024-03-08T12:42:44;23.20;;;11.63;;
3257;SDS011;1641;51.306;12.384;2024-03-08T12:45:12;22.90;;;14.68;;
3257;SDS011;1641;51.306;12.384;2024-03-08T12:47:38;34.58;;;18.20;;
3257;SDS011;1641;51.306;12.384;2024-03-08T12:50:03;24.80;;;14.50;;
3257;SDS011;1641;51.306;12.384;2024-03-08T12:52:29;23.40;;;13.82;;
3257;SDS011;1641;51.306;12.384;2024-03-08T12:54:55;30.48;;;15.98;;
3257;SDS011;1641;51.306;12.384;2024-03-08T12:57:20;33.55;;;19.40;;
3257;SDS011;1641;51.306;12.384;2024-03-08T12:59:47;28.73;;;16.42;;
3257;SDS011;1641;51.306;12.384;2024-03-08T13:02:12;29.10;;;18.08;;
3257;SDS011;1641;51.306;12.384;2024-03-08T13:04:37;32.67;;;18.35;;
3257;SDS011;1641;51.306;12.384;2024-03-08T13:07:03;28.35;;;16.23;;
3257;SDS011;1641;51.306;12.384;2024-03-08T13:09:28;28.92;;;17.90;;
3257;SDS011;1641;51.306;12.384;2024-03-08T13:11:55;26.13;;;17.20;;
3257;SDS011;1641;51.306;12.384;2024-03-08T13:14:21;31.80;;;17.58;;
3257;SDS011;1641;51.306;12.384;2024-03-08T13:16:47;30.85;;;17.95;;
3257;SDS011;1641;51.306;12.384;2024-03-08T13:19:12;23.92;;;15.05;;
3257;SDS011;1641;51.306;12.384;2024-03-08T13:21:41;29.63;;;18.58;;
3257;SDS011;1641;51.306;12.384;2024-03-08T13:24:07;30.70;;;15.88;;
3257;SDS011;1641;51.306;12.384;2024-03-08T13:26:35;24.95;;;13.55;;
3257;SDS011;1641;51.306;12.384;2024-03-08T13:29:00;33.63;;;16.25;;
3257;SDS011;1641;51.306;12.384;2024-03-08T13:31:25;28.17;;;16.33;;
3257;SDS011;1641;51.306;12.384;2024-03-08T13:33:50;21.17;;;12.85;;
3257;SDS011;1641;51.306;12.384;2024-03-08T13:36:16;28.58;;;15.48;;
3257;SDS011;1641;51.306;12.384;2024-03-08T13:38:46;23.17;;;14.43;;
3257;SDS011;1641;51.306;12.384;2024-03-08T13:41:15;22.05;;;13.07;;
3257;SDS011;1641;51.306;12.384;2024-03-08T13:43:42;28.52;;;16.77;;
3257;SDS011;1641;51.306;12.384;2024-03-08T13:46:08;27.45;;;17.33;;
3257;SDS011;1641;51.306;12.384;2024-03-08T13:48:35;20.50;;;10.80;;
3257;SDS011;1641;51.306;12.384;2024-03-08T13:51:02;30.02;;;18.77;;
3257;SDS011;1641;51.306;12.384;2024-03-08T13:53:28;30.17;;;18.92;;
3257;SDS011;1641;51.306;12.384;2024-03-08T13:55:53;34.42;;;20.00;;
3257;SDS011;1641;51.306;12.384;2024-03-08T13:58:19;23.90;;;13.93;;
3257;SDS011;1641;51.306;12.384;2024-03-08T14:00:45;22.15;;;13.48;;
3257;SDS011;1641;51.306;12.384;2024-03-08T14:03:12;34.60;;;19.73;;
3257;SDS011;1641;51.306;12.384;2024-03-08T14:05:39;25.63;;;16.20;;
3257;SDS011;1641;51.306;12.384;2024-03-08T14:08:05;21.92;;;12.82;;
3257;SDS011;1641;51.306;12.384;2024-03-08T14:10:35;31.92;;;18.48;;
3257;SDS011;1641;51.306;12.384;2024-03-08T14:13:04;22.80;;;13.70;;
3257;SDS011;1641;51.306;12.384;2024-03-08T14:15:31;28.23;;;14.55;;
3257;SDS011;1641;51.306;12.384;2024-03-08T14:17:57;28.17;;;17.08;;
3257;SDS011;1641;51.306;12.384;2024-03-08T14:20:23;30.45;;;16.38;;
3257;SDS011;1641;51.306;12.384;2024-03-08T14:22:50;35.45;;;17.95;;
3257;SDS011;1641;51.306;12.384;2024-03-08T14:25:16;30.52;;;19.08;;
3257;SDS011;1641;51.306;12.384;2024-03-08T14:27:43;27.90;;;15.27;;
3257;SDS011;1641;51.306;12.384;2024-03-08T14:30:09;32.17;;;19.23;;
3257;SDS011;1641;51.306;12.384;2024-03-08T14:32:35;27.67;;;13.63;;
3257;SDS011;1641;51.306;12.384;2024-03-08T14:35:03;32.72;;;17.08;;
3257;SDS011;1641;51.306;12.384;2024-03-08T14:37:30;35.75;;;20.27;;
3257;SDS011;1641;51.306;12.384;2024-03-08T14:39:55;35.42;;;16.00;;
3257;SDS011;1641;51.306;12.384;2024-03-08T14:42:22;28.17;;;18.48;;
3257;SDS011;1641;51.306;12.384;2024-03-08T14:44:48;28.02;;;16.67;;
3257;SDS011;1641;51.306;12.384;2024-03-08T14:47:16;32.10;;;19.63;;
3257;SDS011;1641;51.306;12.384;2024-03-08T14:49:42;34.75;;;20.48;;
3257;SDS011;1641;51.306;12.384;2024-03-08T14:52:11;37.72;;;21.05;;